Terminal Aerodrome Forecast
Issued by NWS Jackson, MS

Home | Current Version | Previous Version | Text Only | Print | Product List | Glossary On
Versions: 1 2 3 4 5 6 7 8 9 10 11 12 13 14 15 16 17 18
000
FTUS44 KJAN 030258 AAB
TAFGLH
TAF AMD
KGLH 030258Z 0303/0324 00000KT P6SM OVC035
     FM030700 34004KT P6SM OVC001
     FM031500 36006KT P6SM BKN030=

USA.gov is the U.S. government's official web portal to all federal, state and local government web resources and services.